Terminal Aerodrome Forecast
Issued by NWS

Home | Current Version | Previous Version | Text Only | Print | Product List | Glossary On
Versions: 1 2 3 4 5 6 7 8 9 10 11 12 13
000
FTUS45 KFGZ 020210 AAA
TAFPGA
TAF AMD
KPGA 020210Z 0202/0224 22011G15KT P6SM FEW250
     FM020400 VRB03KT P6SM SKC
     FM021800 26008G18KT P6SM SKC=

USA.gov is the U.S. government's official web portal to all federal, state and local government web resources and services.